sensor_id;sensor_type;location;lat;lon;timestamp;P1;durP1;ratioP1;P2;durP2;ratioP2
12603;SDS011;6367;52.508;13.284;2023-05-01T00:00:49;6.23;;;5.30;;
12603;SDS011;6367;52.508;13.284;2023-05-01T00:03:18;7.87;;;5.67;;
12603;SDS011;6367;52.508;13.284;2023-05-01T00:05:44;9.00;;;5.83;;
12603;SDS011;6367;52.508;13.284;2023-05-01T00:08:10;6.97;;;5.23;;
12603;SDS011;6367;52.508;13.284;2023-05-01T00:10:36;6.67;;;5.23;;
12603;SDS011;6367;52.508;13.284;2023-05-01T00:13:03;9.07;;;6.07;;
12603;SDS011;6367;52.508;13.284;2023-05-01T00:15:29;5.83;;;5.23;;
12603;SDS011;6367;52.508;13.284;2023-05-01T00:17:55;11.50;;;5.63;;
12603;SDS011;6367;52.508;13.284;2023-05-01T00:20:20;7.47;;;5.00;;
12603;SDS011;6367;52.508;13.284;2023-05-01T00:22:47;7.50;;;5.73;;
12603;SDS011;6367;52.508;13.284;2023-05-01T00:25:13;5.33;;;4.27;;
12603;SDS011;6367;52.508;13.284;2023-05-01T00:27:39;4.77;;;4.23;;
12603;SDS011;6367;52.508;13.284;2023-05-01T00:30:05;6.00;;;4.67;;
12603;SDS011;6367;52.508;13.284;2023-05-01T00:32:31;6.40;;;4.40;;
12603;SDS011;6367;52.508;13.284;2023-05-01T00:34:58;7.83;;;5.30;;
12603;SDS011;6367;52.508;13.284;2023-05-01T00:37:24;8.67;;;4.50;;
12603;SDS011;6367;52.508;13.284;2023-05-01T00:39:49;6.10;;;4.50;;
12603;SDS011;6367;52.508;13.284;2023-05-01T00:42:15;4.80;;;3.87;;
12603;SDS011;6367;52.508;13.284;2023-05-01T00:44:41;5.43;;;3.57;;
12603;SDS011;6367;52.508;13.284;2023-05-01T00:47:06;7.63;;;4.63;;
12603;SDS011;6367;52.508;13.284;2023-05-01T00:49:32;6.47;;;4.20;;
12603;SDS011;6367;52.508;13.284;2023-05-01T00:51:58;5.40;;;3.83;;
12603;SDS011;6367;52.508;13.284;2023-05-01T00:54:24;4.97;;;3.97;;
12603;SDS011;6367;52.508;13.284;2023-05-01T00:56:52;8.13;;;3.90;;
12603;SDS011;6367;52.508;13.284;2023-05-01T00:59:18;11.10;;;4.97;;
12603;SDS011;6367;52.508;13.284;2023-05-01T01:01:44;5.63;;;4.30;;
12603;SDS011;6367;52.508;13.284;2023-05-01T01:04:09;7.03;;;4.37;;
12603;SDS011;6367;52.508;13.284;2023-05-01T01:12:19;5.67;;;4.10;;
12603;SDS011;6367;52.508;13.284;2023-05-01T01:20:54;5.73;;;4.70;;
12603;SDS011;6367;52.508;13.284;2023-05-01T01:23:42;7.10;;;4.43;;
12603;SDS011;6367;52.508;13.284;2023-05-01T01:29:03;7.40;;;4.90;;
12603;SDS011;6367;52.508;13.284;2023-05-01T01:31:45;6.33;;;4.13;;
12603;SDS011;6367;52.508;13.284;2023-05-01T01:34:24;9.70;;;5.50;;
12603;SDS011;6367;52.508;13.284;2023-05-01T01:37:03;7.10;;;5.17;;
12603;SDS011;6367;52.508;13.284;2023-05-01T01:39:58;9.10;;;5.27;;
12603;SDS011;6367;52.508;13.284;2023-05-01T01:42:38;5.67;;;4.60;;
12603;SDS011;6367;52.508;13.284;2023-05-01T01:48:05;11.60;;;5.40;;
12603;SDS011;6367;52.508;13.284;2023-05-01T01:50:37;6.63;;;5.13;;
12603;SDS011;6367;52.508;13.284;2023-05-01T01:53:04;6.13;;;4.97;;
12603;SDS011;6367;52.508;13.284;2023-05-01T01:55:32;6.47;;;4.40;;
12603;SDS011;6367;52.508;13.284;2023-05-01T01:58:00;6.37;;;4.33;;
12603;SDS011;6367;52.508;13.284;2023-05-01T02:00:27;7.30;;;5.27;;
12603;SDS011;6367;52.508;13.284;2023-05-01T02:02:54;6.93;;;4.70;;
12603;SDS011;6367;52.508;13.284;2023-05-01T02:05:22;7.37;;;5.30;;
12603;SDS011;6367;52.508;13.284;2023-05-01T02:07:50;6.30;;;5.20;;
12603;SDS011;6367;52.508;13.284;2023-05-01T02:10:17;7.20;;;5.10;;
12603;SDS011;6367;52.508;13.284;2023-05-01T02:12:45;9.53;;;5.73;;
12603;SDS011;6367;52.508;13.284;2023-05-01T02:15:12;8.30;;;5.43;;
12603;SDS011;6367;52.508;13.284;2023-05-01T02:17:40;6.63;;;5.90;;
12603;SDS011;6367;52.508;13.284;2023-05-01T02:20:07;12.03;;;5.90;;
12603;SDS011;6367;52.508;13.284;2023-05-01T02:22:34;9.90;;;5.97;;
12603;SDS011;6367;52.508;13.284;2023-05-01T02:25:01;6.97;;;5.53;;
12603;SDS011;6367;52.508;13.284;2023-05-01T02:27:33;9.33;;;6.10;;
12603;SDS011;6367;52.508;13.284;2023-05-01T02:30:00;6.63;;;5.60;;
12603;SDS011;6367;52.508;13.284;2023-05-01T02:32:26;7.30;;;5.37;;
12603;SDS011;6367;52.508;13.284;2023-05-01T02:34:52;7.40;;;5.40;;
12603;SDS011;6367;52.508;13.284;2023-05-01T02:37:18;7.17;;;4.87;;
12603;SDS011;6367;52.508;13.284;2023-05-01T02:39:44;10.50;;;6.33;;
12603;SDS011;6367;52.508;13.284;2023-05-01T02:42:10;6.33;;;5.73;;
12603;SDS011;6367;52.508;13.284;2023-05-01T02:45:02;12.00;;;6.93;;
12603;SDS011;6367;52.508;13.284;2023-05-01T02:47:28;9.30;;;5.90;;
12603;SDS011;6367;52.508;13.284;2023-05-01T02:49:56;10.60;;;7.00;;
12603;SDS011;6367;52.508;13.284;2023-05-01T02:52:24;11.83;;;6.10;;
12603;SDS011;6367;52.508;13.284;2023-05-01T02:54:50;8.83;;;6.30;;
12603;SDS011;6367;52.508;13.284;2023-05-01T02:57:16;12.20;;;6.20;;
12603;SDS011;6367;52.508;13.284;2023-05-01T02:59:44;12.57;;;6.40;;
12603;SDS011;6367;52.508;13.284;2023-05-01T03:02:10;10.07;;;6.13;;
12603;SDS011;6367;52.508;13.284;2023-05-01T03:04:36;9.63;;;6.87;;
12603;SDS011;6367;52.508;13.284;2023-05-01T03:07:01;7.90;;;5.93;;
12603;SDS011;6367;52.508;13.284;2023-05-01T03:09:28;8.00;;;5.97;;
12603;SDS011;6367;52.508;13.284;2023-05-01T03:11:55;7.53;;;5.50;;
12603;SDS011;6367;52.508;13.284;2023-05-01T03:14:21;6.20;;;5.30;;
12603;SDS011;6367;52.508;13.284;2023-05-01T03:16:47;7.63;;;6.00;;
12603;SDS011;6367;52.508;13.284;2023-05-01T03:19:13;8.40;;;6.37;;
12603;SDS011;6367;52.508;13.284;2023-05-01T03:21:39;10.57;;;6.50;;
12603;SDS011;6367;52.508;13.284;2023-05-01T03:24:05;9.00;;;6.97;;
12603;SDS011;6367;52.508;13.284;2023-05-01T03:26:31;8.10;;;5.83;;
12603;SDS011;6367;52.508;13.284;2023-05-01T03:28:57;7.07;;;6.37;;
12603;SDS011;6367;52.508;13.284;2023-05-01T03:31:23;9.70;;;6.23;;
12603;SDS011;6367;52.508;13.284;2023-05-01T03:33:48;6.97;;;5.87;;
12603;SDS011;6367;52.508;13.284;2023-05-01T03:36:14;6.30;;;5.70;;
12603;SDS011;6367;52.508;13.284;2023-05-01T03:38:40;7.00;;;6.27;;
12603;SDS011;6367;52.508;13.284;2023-05-01T03:41:06;11.47;;;6.60;;
12603;SDS011;6367;52.508;13.284;2023-05-01T03:43:32;8.27;;;6.37;;
12603;SDS011;6367;52.508;13.284;2023-05-01T03:45:58;7.53;;;5.67;;
12603;SDS011;6367;52.508;13.284;2023-05-01T03:48:24;9.80;;;6.23;;
12603;SDS011;6367;52.508;13.284;2023-05-01T03:50:50;8.67;;;5.80;;
12603;SDS011;6367;52.508;13.284;2023-05-01T03:53:16;8.93;;;5.67;;
12603;SDS011;6367;52.508;13.284;2023-05-01T03:55:42;10.87;;;6.23;;
12603;SDS011;6367;52.508;13.284;2023-05-01T03:58:08;9.43;;;7.10;;
12603;SDS011;6367;52.508;13.284;2023-05-01T04:00:37;7.57;;;6.30;;
12603;SDS011;6367;52.508;13.284;2023-05-01T04:03:03;11.40;;;7.23;;
12603;SDS011;6367;52.508;13.284;2023-05-01T04:05:29;12.67;;;7.73;;
12603;SDS011;6367;52.508;13.284;2023-05-01T04:07:55;8.20;;;6.20;;
12603;SDS011;6367;52.508;13.284;2023-05-01T04:10:21;12.10;;;6.10;;
12603;SDS011;6367;52.508;13.284;2023-05-01T04:12:46;10.03;;;7.10;;
12603;SDS011;6367;52.508;13.284;2023-05-01T04:15:12;8.63;;;6.37;;
12603;SDS011;6367;52.508;13.284;2023-05-01T04:17:38;6.60;;;5.73;;
12603;SDS011;6367;52.508;13.284;2023-05-01T04:20:04;7.37;;;6.13;;
12603;SDS011;6367;52.508;13.284;2023-05-01T04:22:30;11.03;;;6.53;;
12603;SDS011;6367;52.508;13.284;2023-05-01T04:24:57;10.00;;;6.80;;
12603;SDS011;6367;52.508;13.284;2023-05-01T04:27:22;9.20;;;6.53;;
12603;SDS011;6367;52.508;13.284;2023-05-01T04:29:49;10.27;;;6.53;;
12603;SDS011;6367;52.508;13.284;2023-05-01T04:32:14;8.83;;;6.13;;
12603;SDS011;6367;52.508;13.284;2023-05-01T04:34:41;8.10;;;5.90;;
12603;SDS011;6367;52.508;13.284;2023-05-01T04:37:07;7.40;;;6.17;;
12603;SDS011;6367;52.508;13.284;2023-05-01T04:39:33;7.90;;;5.93;;
12603;SDS011;6367;52.508;13.284;2023-05-01T04:42:00;11.30;;;6.50;;
12603;SDS011;6367;52.508;13.284;2023-05-01T04:44:26;11.23;;;6.00;;
12603;SDS011;6367;52.508;13.284;2023-05-01T04:46:52;7.97;;;5.63;;
12603;SDS011;6367;52.508;13.284;2023-05-01T04:49:18;8.00;;;5.10;;
12603;SDS011;6367;52.508;13.284;2023-05-01T04:51:45;5.90;;;5.30;;
12603;SDS011;6367;52.508;13.284;2023-05-01T04:54:11;7.80;;;6.13;;
12603;SDS011;6367;52.508;13.284;2023-05-01T04:56:36;7.00;;;5.50;;
12603;SDS011;6367;52.508;13.284;2023-05-01T04:59:02;9.40;;;6.17;;
12603;SDS011;6367;52.508;13.284;2023-05-01T05:01:28;6.10;;;5.40;;
12603;SDS011;6367;52.508;13.284;2023-05-01T05:03:53;7.97;;;5.13;;
12603;SDS011;6367;52.508;13.284;2023-05-01T05:06:19;6.47;;;5.07;;
12603;SDS011;6367;52.508;13.284;2023-05-01T05:08:45;7.73;;;5.23;;
12603;SDS011;6367;52.508;13.284;2023-05-01T05:11:11;10.50;;;5.60;;
12603;SDS011;6367;52.508;13.284;2023-05-01T05:13:36;9.10;;;6.17;;
12603;SDS011;6367;52.508;13.284;2023-05-01T05:16:02;9.30;;;5.00;;
12603;SDS011;6367;52.508;13.284;2023-05-01T05:18:28;6.00;;;5.10;;
12603;SDS011;6367;52.508;13.284;2023-05-01T05:20:53;7.27;;;4.80;;
12603;SDS011;6367;52.508;13.284;2023-05-01T05:23:19;9.83;;;5.60;;
12603;SDS011;6367;52.508;13.284;2023-05-01T05:25:45;7.87;;;5.23;;
12603;SDS011;6367;52.508;13.284;2023-05-01T05:28:11;6.33;;;4.77;;
12603;SDS011;6367;52.508;13.284;2023-05-01T05:30:36;6.90;;;4.97;;
12603;SDS011;6367;52.508;13.284;2023-05-01T05:33:02;8.83;;;5.20;;
12603;SDS011;6367;52.508;13.284;2023-05-01T05:35:29;5.73;;;4.60;;
12603;SDS011;6367;52.508;13.284;2023-05-01T05:37:55;8.50;;;5.63;;
12603;SDS011;6367;52.508;13.284;2023-05-01T05:40:21;11.43;;;5.60;;
12603;SDS011;6367;52.508;13.284;2023-05-01T05:42:46;7.57;;;5.20;;
12603;SDS011;6367;52.508;13.284;2023-05-01T05:45:12;8.90;;;5.43;;
12603;SDS011;6367;52.508;13.284;2023-05-01T05:47:38;6.97;;;4.90;;
12603;SDS011;6367;52.508;13.284;2023-05-01T05:50:04;6.40;;;5.60;;
12603;SDS011;6367;52.508;13.284;2023-05-01T05:52:31;8.13;;;4.97;;
12603;SDS011;6367;52.508;13.284;2023-05-01T05:54:57;5.77;;;5.13;;
12603;SDS011;6367;52.508;13.284;2023-05-01T05:57:22;8.23;;;4.97;;
12603;SDS011;6367;52.508;13.284;2023-05-01T05:59:48;8.97;;;4.70;;
12603;SDS011;6367;52.508;13.284;2023-05-01T06:02:18;6.53;;;4.60;;
12603;SDS011;6367;52.508;13.284;2023-05-01T06:04:44;9.00;;;4.80;;
12603;SDS011;6367;52.508;13.284;2023-05-01T06:07:10;6.20;;;4.57;;
12603;SDS011;6367;52.508;13.284;2023-05-01T06:09:35;7.17;;;4.40;;
12603;SDS011;6367;52.508;13.284;2023-05-01T06:12:01;6.53;;;4.80;;
12603;SDS011;6367;52.508;13.284;2023-05-01T06:14:29;10.47;;;4.73;;
12603;SDS011;6367;52.508;13.284;2023-05-01T06:16:55;8.53;;;4.30;;
12603;SDS011;6367;52.508;13.284;2023-05-01T06:19:20;5.23;;;4.20;;
12603;SDS011;6367;52.508;13.284;2023-05-01T06:21:46;6.90;;;4.30;;
12603;SDS011;6367;52.508;13.284;2023-05-01T06:24:11;6.80;;;3.90;;
12603;SDS011;6367;52.508;13.284;2023-05-01T06:26:37;8.00;;;4.17;;
12603;SDS011;6367;52.508;13.284;2023-05-01T06:29:03;6.00;;;4.17;;
12603;SDS011;6367;52.508;13.284;2023-05-01T06:31:28;6.50;;;4.20;;
12603;SDS011;6367;52.508;13.284;2023-05-01T06:33:54;11.73;;;4.30;;
12603;SDS011;6367;52.508;13.284;2023-05-01T06:36:20;8.80;;;4.60;;
12603;SDS011;6367;52.508;13.284;2023-05-01T06:38:45;8.60;;;4.43;;
12603;SDS011;6367;52.508;13.284;2023-05-01T06:41:13;5.70;;;3.80;;
12603;SDS011;6367;52.508;13.284;2023-05-01T06:43:42;6.57;;;4.27;;
12603;SDS011;6367;52.508;13.284;2023-05-01T06:46:07;5.53;;;3.87;;
12603;SDS011;6367;52.508;13.284;2023-05-01T06:48:33;7.60;;;3.80;;
12603;SDS011;6367;52.508;13.284;2023-05-01T06:50:59;5.37;;;3.90;;
12603;SDS011;6367;52.508;13.284;2023-05-01T06:53:24;6.87;;;3.73;;
12603;SDS011;6367;52.508;13.284;2023-05-01T06:55:50;4.00;;;3.30;;
12603;SDS011;6367;52.508;13.284;2023-05-01T06:58:16;7.60;;;4.33;;
12603;SDS011;6367;52.508;13.284;2023-05-01T07:00:41;6.53;;;4.00;;
12603;SDS011;6367;52.508;13.284;2023-05-01T07:03:07;5.93;;;4.13;;
12603;SDS011;6367;52.508;13.284;2023-05-01T07:05:33;5.20;;;3.90;;
12603;SDS011;6367;52.508;13.284;2023-05-01T07:07:58;6.80;;;4.00;;
12603;SDS011;6367;52.508;13.284;2023-05-01T07:10:25;3.83;;;3.53;;
12603;SDS011;6367;52.508;13.284;2023-05-01T07:12:51;6.53;;;3.80;;
12603;SDS011;6367;52.508;13.284;2023-05-01T07:15:16;6.77;;;4.30;;
12603;SDS011;6367;52.508;13.284;2023-05-01T07:17:42;5.50;;;4.30;;
12603;SDS011;6367;52.508;13.284;2023-05-01T07:20:08;7.63;;;4.57;;
12603;SDS011;6367;52.508;13.284;2023-05-01T07:22:35;9.10;;;4.43;;
12603;SDS011;6367;52.508;13.284;2023-05-01T07:25:00;7.40;;;4.60;;
12603;SDS011;6367;52.508;13.284;2023-05-01T07:27:27;9.00;;;4.30;;
12603;SDS011;6367;52.508;13.284;2023-05-01T07:29:54;5.63;;;4.00;;
12603;SDS011;6367;52.508;13.284;2023-05-01T07:32:21;7.40;;;4.20;;
12603;SDS011;6367;52.508;13.284;2023-05-01T07:34:47;6.30;;;3.93;;
12603;SDS011;6367;52.508;13.284;2023-05-01T07:37:13;8.23;;;4.03;;
12603;SDS011;6367;52.508;13.284;2023-05-01T07:39:38;5.17;;;3.87;;
12603;SDS011;6367;52.508;13.284;2023-05-01T07:42:04;7.80;;;3.93;;
12603;SDS011;6367;52.508;13.284;2023-05-01T07:44:30;8.17;;;4.20;;
12603;SDS011;6367;52.508;13.284;2023-05-01T07:47:01;5.87;;;4.20;;
12603;SDS011;6367;52.508;13.284;2023-05-01T07:49:27;6.70;;;3.87;;
12603;SDS011;6367;52.508;13.284;2023-05-01T07:51:54;7.20;;;3.70;;
12603;SDS011;6367;52.508;13.284;2023-05-01T07:54:19;5.70;;;4.13;;
12603;SDS011;6367;52.508;13.284;2023-05-01T07:56:46;4.23;;;3.40;;
12603;SDS011;6367;52.508;13.284;2023-05-01T07:59:12;4.63;;;3.50;;
12603;SDS011;6367;52.508;13.284;2023-05-01T08:01:39;9.70;;;4.47;;
12603;SDS011;6367;52.508;13.284;2023-05-01T08:04:05;6.50;;;3.80;;
12603;SDS011;6367;52.508;13.284;2023-05-01T08:06:31;6.87;;;3.60;;
12603;SDS011;6367;52.508;13.284;2023-05-01T08:08:57;7.10;;;3.70;;
12603;SDS011;6367;52.508;13.284;2023-05-01T08:11:24;5.83;;;4.00;;
12603;SDS011;6367;52.508;13.284;2023-05-01T08:13:50;4.60;;;3.30;;
12603;SDS011;6367;52.508;13.284;2023-05-01T08:16:16;7.27;;;4.60;;
12603;SDS011;6367;52.508;13.284;2023-05-01T08:18:43;4.03;;;3.53;;
12603;SDS011;6367;52.508;13.284;2023-05-01T08:21:10;8.10;;;3.53;;
12603;SDS011;6367;52.508;13.284;2023-05-01T08:23:36;7.30;;;3.83;;
12603;SDS011;6367;52.508;13.284;2023-05-01T08:26:01;8.13;;;4.40;;
12603;SDS011;6367;52.508;13.284;2023-05-01T08:28:27;4.07;;;3.07;;
12603;SDS011;6367;52.508;13.284;2023-05-01T08:30:53;5.00;;;3.00;;
12603;SDS011;6367;52.508;13.284;2023-05-01T08:33:19;3.77;;;3.10;;
12603;SDS011;6367;52.508;13.284;2023-05-01T08:35:44;6.57;;;2.93;;
12603;SDS011;6367;52.508;13.284;2023-05-01T08:38:10;3.30;;;3.00;;
12603;SDS011;6367;52.508;13.284;2023-05-01T08:40:36;4.03;;;3.33;;
12603;SDS011;6367;52.508;13.284;2023-05-01T08:43:03;3.50;;;2.87;;
12603;SDS011;6367;52.508;13.284;2023-05-01T08:45:31;4.90;;;3.63;;
12603;SDS011;6367;52.508;13.284;2023-05-01T08:48:03;4.20;;;3.20;;
12603;SDS011;6367;52.508;13.284;2023-05-01T08:50:34;5.27;;;3.10;;
12603;SDS011;6367;52.508;13.284;2023-05-01T08:53:01;4.20;;;2.80;;
12603;SDS011;6367;52.508;13.284;2023-05-01T08:55:29;4.67;;;3.13;;
12603;SDS011;6367;52.508;13.284;2023-05-01T08:57:56;7.53;;;2.83;;
12603;SDS011;6367;52.508;13.284;2023-05-01T09:00:22;6.30;;;3.00;;
12603;SDS011;6367;52.508;13.284;2023-05-01T09:02:50;4.03;;;2.93;;
12603;SDS011;6367;52.508;13.284;2023-05-01T09:05:19;8.53;;;3.33;;
12603;SDS011;6367;52.508;13.284;2023-05-01T09:07:45;5.63;;;3.47;;
12603;SDS011;6367;52.508;13.284;2023-05-01T09:10:12;4.67;;;3.10;;
12603;SDS011;6367;52.508;13.284;2023-05-01T09:12:39;7.57;;;3.37;;
12603;SDS011;6367;52.508;13.284;2023-05-01T09:15:09;4.90;;;3.00;;
12603;SDS011;6367;52.508;13.284;2023-05-01T09:17:35;7.80;;;2.93;;
12603;SDS011;6367;52.508;13.284;2023-05-01T09:20:01;6.53;;;3.17;;
12603;SDS011;6367;52.508;13.284;2023-05-01T09:22:32;5.97;;;2.97;;
12603;SDS011;6367;52.508;13.284;2023-05-01T09:24:58;4.40;;;3.03;;
12603;SDS011;6367;52.508;13.284;2023-05-01T09:27:25;5.33;;;2.97;;
12603;SDS011;6367;52.508;13.284;2023-05-01T09:29:51;6.90;;;3.43;;
12603;SDS011;6367;52.508;13.284;2023-05-01T09:34:47;4.87;;;3.30;;
12603;SDS011;6367;52.508;13.284;2023-05-01T09:37:23;5.87;;;3.43;;
12603;SDS011;6367;52.508;13.284;2023-05-01T09:42:38;6.20;;;2.60;;
12603;SDS011;6367;52.508;13.284;2023-05-01T09:45:06;6.13;;;3.23;;
12603;SDS011;6367;52.508;13.284;2023-05-01T09:47:43;3.63;;;2.40;;
12603;SDS011;6367;52.508;13.284;2023-05-01T09:50:27;5.93;;;3.60;;
12603;SDS011;6367;52.508;13.284;2023-05-01T09:52:54;4.40;;;3.37;;
12603;SDS011;6367;52.508;13.284;2023-05-01T09:55:19;7.60;;;2.93;;
12603;SDS011;6367;52.508;13.284;2023-05-01T09:57:47;6.80;;;2.83;;
12603;SDS011;6367;52.508;13.284;2023-05-01T10:00:13;4.53;;;3.20;;
12603;SDS011;6367;52.508;13.284;2023-05-01T10:02:40;5.07;;;3.23;;
12603;SDS011;6367;52.508;13.284;2023-05-01T10:05:08;6.37;;;3.23;;
12603;SDS011;6367;52.508;13.284;2023-05-01T10:07:34;5.43;;;3.07;;
12603;SDS011;6367;52.508;13.284;2023-05-01T10:10:18;4.07;;;3.10;;
12603;SDS011;6367;52.508;13.284;2023-05-01T10:12:45;5.90;;;4.10;;
12603;SDS011;6367;52.508;13.284;2023-05-01T10:15:12;5.43;;;3.23;;
12603;SDS011;6367;52.508;13.284;2023-05-01T10:17:39;3.60;;;2.87;;
12603;SDS011;6367;52.508;13.284;2023-05-01T10:20:07;4.40;;;3.80;;
12603;SDS011;6367;52.508;13.284;2023-05-01T10:22:35;6.03;;;3.73;;
12603;SDS011;6367;52.508;13.284;2023-05-01T10:25:01;5.10;;;3.93;;
12603;SDS011;6367;52.508;13.284;2023-05-01T10:27:28;4.37;;;3.50;;
12603;SDS011;6367;52.508;13.284;2023-05-01T10:29:55;4.70;;;3.60;;
12603;SDS011;6367;52.508;13.284;2023-05-01T10:32:21;5.10;;;3.03;;
12603;SDS011;6367;52.508;13.284;2023-05-01T10:34:48;4.83;;;3.33;;
12603;SDS011;6367;52.508;13.284;2023-05-01T10:37:22;4.03;;;3.07;;
12603;SDS011;6367;52.508;13.284;2023-05-01T10:39:53;8.03;;;3.27;;
12603;SDS011;6367;52.508;13.284;2023-05-01T10:42:18;6.47;;;4.20;;
12603;SDS011;6367;52.508;13.284;2023-05-01T10:44:44;4.93;;;3.40;;
12603;SDS011;6367;52.508;13.284;2023-05-01T10:50:10;4.00;;;3.67;;
12603;SDS011;6367;52.508;13.284;2023-05-01T10:55:43;4.90;;;4.13;;
12603;SDS011;6367;52.508;13.284;2023-05-01T10:58:11;5.03;;;3.77;;
12603;SDS011;6367;52.508;13.284;2023-05-01T11:00:38;5.70;;;3.73;;
12603;SDS011;6367;52.508;13.284;2023-05-01T11:08:29;5.77;;;3.90;;
12603;SDS011;6367;52.508;13.284;2023-05-01T11:22:01;5.50;;;3.50;;
12603;SDS011;6367;52.508;13.284;2023-05-01T11:24:35;4.67;;;3.80;;
12603;SDS011;6367;52.508;13.284;2023-05-01T11:27:02;4.57;;;3.90;;
12603;SDS011;6367;52.508;13.284;2023-05-01T11:29:31;4.78;;;3.53;;
12603;SDS011;6367;52.508;13.284;2023-05-01T11:31:58;5.83;;;3.43;;
12603;SDS011;6367;52.508;13.284;2023-05-01T11:34:24;4.50;;;3.63;;
12603;SDS011;6367;52.508;13.284;2023-05-01T11:36:51;3.33;;;3.03;;
12603;SDS011;6367;52.508;13.284;2023-05-01T11:39:17;6.50;;;4.30;;
12603;SDS011;6367;52.508;13.284;2023-05-01T11:41:44;5.57;;;4.03;;
12603;SDS011;6367;52.508;13.284;2023-05-01T11:44:10;9.63;;;3.60;;
12603;SDS011;6367;52.508;13.284;2023-05-01T11:46:37;5.03;;;4.20;;
12603;SDS011;6367;52.508;13.284;2023-05-01T11:49:03;4.93;;;4.10;;
12603;SDS011;6367;52.508;13.284;2023-05-01T11:51:29;4.90;;;4.03;;
12603;SDS011;6367;52.508;13.284;2023-05-01T11:54:17;6.47;;;3.73;;
12603;SDS011;6367;52.508;13.284;2023-05-01T11:56:42;4.70;;;3.97;;
12603;SDS011;6367;52.508;13.284;2023-05-01T11:59:12;7.40;;;4.20;;
12603;SDS011;6367;52.508;13.284;2023-05-01T12:01:42;5.03;;;3.67;;
12603;SDS011;6367;52.508;13.284;2023-05-01T12:04:10;6.73;;;3.77;;
12603;SDS011;6367;52.508;13.284;2023-05-01T12:06:37;6.17;;;4.37;;
12603;SDS011;6367;52.508;13.284;2023-05-01T12:09:09;5.63;;;4.90;;
12603;SDS011;6367;52.508;13.284;2023-05-01T12:11:46;5.53;;;4.53;;
12603;SDS011;6367;52.508;13.284;2023-05-01T12:14:14;7.00;;;4.40;;
12603;SDS011;6367;52.508;13.284;2023-05-01T12:16:40;4.90;;;4.10;;
12603;SDS011;6367;52.508;13.284;2023-05-01T12:19:07;5.27;;;4.37;;
12603;SDS011;6367;52.508;13.284;2023-05-01T12:21:33;6.17;;;4.30;;
12603;SDS011;6367;52.508;13.284;2023-05-01T12:24:07;6.87;;;4.60;;
12603;SDS011;6367;52.508;13.284;2023-05-01T12:26:37;4.97;;;4.00;;
12603;SDS011;6367;52.508;13.284;2023-05-01T12:29:06;5.40;;;4.00;;
12603;SDS011;6367;52.508;13.284;2023-05-01T12:31:33;4.77;;;4.37;;
12603;SDS011;6367;52.508;13.284;2023-05-01T12:34:01;6.90;;;4.80;;
12603;SDS011;6367;52.508;13.284;2023-05-01T12:36:29;5.30;;;4.10;;
12603;SDS011;6367;52.508;13.284;2023-05-01T12:38:57;8.13;;;4.20;;
12603;SDS011;6367;52.508;13.284;2023-05-01T12:41:43;6.30;;;4.60;;
12603;SDS011;6367;52.508;13.284;2023-05-01T12:44:26;5.13;;;4.63;;
12603;SDS011;6367;52.508;13.284;2023-05-01T12:46:55;5.47;;;4.27;;
12603;SDS011;6367;52.508;13.284;2023-05-01T12:49:30;6.70;;;4.50;;
12603;SDS011;6367;52.508;13.284;2023-05-01T12:51:57;7.03;;;5.23;;
12603;SDS011;6367;52.508;13.284;2023-05-01T12:57:05;4.83;;;4.33;;
12603;SDS011;6367;52.508;13.284;2023-05-01T12:59:38;6.40;;;4.33;;
12603;SDS011;6367;52.508;13.284;2023-05-01T13:02:06;7.80;;;5.17;;
12603;SDS011;6367;52.508;13.284;2023-05-01T13:04:37;5.63;;;4.90;;
12603;SDS011;6367;52.508;13.284;2023-05-01T13:07:10;6.30;;;4.40;;
12603;SDS011;6367;52.508;13.284;2023-05-01T13:09:52;5.50;;;4.87;;
12603;SDS011;6367;52.508;13.284;2023-05-01T13:12:19;5.60;;;4.93;;
12603;SDS011;6367;52.508;13.284;2023-05-01T13:14:45;5.60;;;4.73;;
12603;SDS011;6367;52.508;13.284;2023-05-01T13:17:11;5.30;;;4.90;;
12603;SDS011;6367;52.508;13.284;2023-05-01T13:19:45;6.33;;;5.00;;
12603;SDS011;6367;52.508;13.284;2023-05-01T13:22:18;7.90;;;4.93;;
12603;SDS011;6367;52.508;13.284;2023-05-01T13:24:53;6.43;;;4.67;;
12603;SDS011;6367;52.508;13.284;2023-05-01T13:27:20;7.73;;;4.77;;
12603;SDS011;6367;52.508;13.284;2023-05-01T13:30:04;6.20;;;4.50;;
12603;SDS011;6367;52.508;13.284;2023-05-01T13:32:31;6.83;;;5.10;;
12603;SDS011;6367;52.508;13.284;2023-05-01T13:34:59;6.27;;;4.87;;
12603;SDS011;6367;52.508;13.284;2023-05-01T13:37:25;7.80;;;4.60;;
12603;SDS011;6367;52.508;13.284;2023-05-01T13:39:52;5.23;;;4.70;;
12603;SDS011;6367;52.508;13.284;2023-05-01T13:42:22;7.60;;;4.80;;
12603;SDS011;6367;52.508;13.284;2023-05-01T13:44:52;5.83;;;5.23;;
12603;SDS011;6367;52.508;13.284;2023-05-01T13:47:20;5.67;;;4.90;;
12603;SDS011;6367;52.508;13.284;2023-05-01T13:49:49;7.57;;;4.80;;
12603;SDS011;6367;52.508;13.284;2023-05-01T13:52:16;7.13;;;4.43;;
12603;SDS011;6367;52.508;13.284;2023-05-01T13:54:43;7.23;;;4.53;;
12603;SDS011;6367;52.508;13.284;2023-05-01T13:57:10;4.33;;;3.57;;
12603;SDS011;6367;52.508;13.284;2023-05-01T13:59:39;6.07;;;4.70;;
12603;SDS011;6367;52.508;13.284;2023-05-01T14:02:28;7.23;;;5.00;;
12603;SDS011;6367;52.508;13.284;2023-05-01T14:04:53;5.73;;;4.90;;
12603;SDS011;6367;52.508;13.284;2023-05-01T14:07:20;5.83;;;4.83;;
12603;SDS011;6367;52.508;13.284;2023-05-01T14:09:57;6.77;;;5.20;;
12603;SDS011;6367;52.508;13.284;2023-05-01T14:12:29;5.77;;;5.13;;
12603;SDS011;6367;52.508;13.284;2023-05-01T14:14:56;5.60;;;4.47;;
12603;SDS011;6367;52.508;13.284;2023-05-01T14:17:30;5.33;;;4.60;;
12603;SDS011;6367;52.508;13.284;2023-05-01T14:19:58;6.37;;;5.00;;
12603;SDS011;6367;52.508;13.284;2023-05-01T14:22:28;6.63;;;4.70;;
12603;SDS011;6367;52.508;13.284;2023-05-01T14:24:54;6.77;;;5.20;;
12603;SDS011;6367;52.508;13.284;2023-05-01T14:27:21;6.50;;;5.80;;
12603;SDS011;6367;52.508;13.284;2023-05-01T14:29:47;6.00;;;5.23;;
12603;SDS011;6367;52.508;13.284;2023-05-01T14:32:13;6.00;;;4.50;;
12603;SDS011;6367;52.508;13.284;2023-05-01T14:34:40;7.10;;;4.77;;
12603;SDS011;6367;52.508;13.284;2023-05-01T14:37:10;5.60;;;4.87;;
12603;SDS011;6367;52.508;13.284;2023-05-01T14:39:38;6.67;;;5.20;;
12603;SDS011;6367;52.508;13.284;2023-05-01T14:42:04;5.30;;;4.80;;
12603;SDS011;6367;52.508;13.284;2023-05-01T14:44:30;5.50;;;4.73;;
12603;SDS011;6367;52.508;13.284;2023-05-01T14:46:56;8.73;;;5.47;;
12603;SDS011;6367;52.508;13.284;2023-05-01T14:49:23;6.30;;;5.13;;
12603;SDS011;6367;52.508;13.284;2023-05-01T14:51:50;5.43;;;4.93;;
12603;SDS011;6367;52.508;13.284;2023-05-01T14:54:17;7.80;;;5.20;;
12603;SDS011;6367;52.508;13.284;2023-05-01T14:56:44;6.27;;;5.67;;
12603;SDS011;6367;52.508;13.284;2023-05-01T14:59:11;7.00;;;5.40;;
12603;SDS011;6367;52.508;13.284;2023-05-01T15:01:37;5.53;;;5.03;;
12603;SDS011;6367;52.508;13.284;2023-05-01T15:04:04;5.70;;;4.87;;
12603;SDS011;6367;52.508;13.284;2023-05-01T15:06:33;5.87;;;5.27;;
12603;SDS011;6367;52.508;13.284;2023-05-01T15:08:58;5.60;;;5.00;;
12603;SDS011;6367;52.508;13.284;2023-05-01T15:11:24;6.93;;;5.50;;
12603;SDS011;6367;52.508;13.284;2023-05-01T15:13:50;6.20;;;5.60;;
12603;SDS011;6367;52.508;13.284;2023-05-01T15:16:16;4.90;;;4.43;;
12603;SDS011;6367;52.508;13.284;2023-05-01T15:18:42;5.80;;;5.20;;
12603;SDS011;6367;52.508;13.284;2023-05-01T15:21:08;4.97;;;4.47;;
12603;SDS011;6367;52.508;13.284;2023-05-01T15:23:33;5.23;;;4.73;;
12603;SDS011;6367;52.508;13.284;2023-05-01T15:26:00;6.10;;;5.20;;
12603;SDS011;6367;52.508;13.284;2023-05-01T15:28:26;6.40;;;5.10;;
12603;SDS011;6367;52.508;13.284;2023-05-01T15:30:52;5.87;;;5.20;;
12603;SDS011;6367;52.508;13.284;2023-05-01T15:33:18;5.37;;;4.87;;
12603;SDS011;6367;52.508;13.284;2023-05-01T15:35:44;5.93;;;5.30;;